Погода Андреяновона 2 недели

Тверская область, Россия

22 мая-04 июня
  • 22мая
    Сегодня
    +6°
    +21°
    Ясно и безоблачно
    ВремяПогодаТемператураВлажностьДавлениеВетер, м/сВероятность осадков
    00:00Ясно и безоблачно+11°C54 %746 мм3.1 м/с2 %
    03:00Ясно и безоблачно+7°C65 %746 мм1.9 м/с2 %
    06:00Ясно и безоблачно+8°C68 %747 мм2.9 м/с2 %
    09:00Ясно и безоблачно+15°C56 %748 мм2.9 м/с2 %
    12:00Ясно и безоблачно+20°C40 %748 мм3.2 м/с2 %
    15:00Ясно и безоблачно+21°C37 %747 мм3.3 м/с2 %
    18:00Ясно и безоблачно+21°C37 %747 мм3.3 м/с2 %
    21:00Ясно и безоблачно+15°C53 %748 мм2.5 м/с2 %
  • 23мая
    Четверг
    +6°
    +21°
    Практически безоблачно
    ВремяПогодаТемператураВлажностьДавлениеВетер, м/сВероятность осадков
    00:00Ясно и безоблачно+10°C56 %749 мм3.4 м/с2 %
    03:00Ясно и безоблачно+7°C61 %749 мм2.7 м/с2 %
    06:00Ясно и безоблачно+8°C66 %750 мм2.7 м/с2 %
    09:00Ясно и безоблачно+16°C50 %752 мм2.5 м/с2 %
    12:00Ясно и безоблачно+19°C37 %752 мм3.4 м/с2 %
    15:00Практически безоблачно+20°C35 %752 мм2.7 м/с2 %
    18:00Ясно и безоблачно+20°C35 %751 мм4.1 м/с2 %
    21:00Ясно и безоблачно+15°C51 %751 мм2.5 м/с2 %
  • 24мая
    Пятница
    +6°
    +21°
    Ясно и безоблачно
    ВремяПогодаТемператураВлажностьДавлениеВетер, м/сВероятность осадков
    00:00Практически безоблачно+10°C59 %752 мм2.8 м/с2 %
    03:00Ясно и безоблачно+7°C66 %753 мм2.4 м/с2 %
    06:00Ясно и безоблачно+9°C67 %754 мм2.4 м/с2 %
    09:00Ясно и безоблачно+16°C46 %754 мм2.3 м/с2 %
    12:00Ясно и безоблачно+19°C38 %754 мм2.9 м/с2 %
    15:00Ясно и безоблачно+20°C37 %754 мм3.2 м/с2 %
    18:00Ясно и безоблачно+20°C39 %753 мм3.2 м/с2 %
    21:00Ясно и безоблачно+15°C57 %752 мм2.5 м/с2 %
  • 25мая
    Суббота
    +8°
    +24°
    Ясно и безоблачно
    ВремяПогодаТемператураВлажностьДавлениеВетер, м/сВероятность осадков
    00:00Ясно и безоблачно+9°C64 %752 мм2.9 м/с2 %
    03:00Ясно и безоблачно+7°C65 %752 мм2.6 м/с2 %
    06:00Ясно и безоблачно+8°C71 %752 мм2.9 м/с2 %
    09:00Ясно и безоблачно+16°C54 %752 мм2.9 м/с2 %
    12:00Практически безоблачно+21°C43 %751 мм2.9 м/с2 %
    15:00Ясно и безоблачно+23°C40 %750 мм3.4 м/с2 %
    18:00Ясно и безоблачно+23°C40 %749 мм3.1 м/с2 %
    21:00Ясно и безоблачно+16°C65 %748 мм1.9 м/с3 %
  • 26мая
    Воскресенье
    +9°
    +25°
    Ясно и безоблачно
    ВремяПогодаТемператураВлажностьДавлениеВетер, м/сВероятность осадков
    00:00Ясно и безоблачно+12°C74 %748 мм2.3 м/с2 %
    03:00Ясно и безоблачно+9°C83 %748 мм2.5 м/с2 %
    06:00Ясно и безоблачно+12°C77 %749 мм2.7 м/с5 %
    09:00Ясно и безоблачно+19°C59 %749 мм1.9 м/с8 %
    12:00Ясно и безоблачно+23°C41 %749 мм1.7 м/с28 %
    15:00Ясно и безоблачно+24°C36 %749 мм2.1 м/с39 %
    18:00Небольшая облачность+24°C39 %748 мм1.6 м/с47 %
    21:00Ясно и безоблачно+18°C60 %748 мм2.1 м/с13 %
Мы используем cookies
Соглашаюсь